createdAt,value
2017-11-21T00:00:37.268Z,12.92
2017-11-21T00:03:12.396Z,12.87
2017-11-21T00:05:45.607Z,12.86
2017-11-21T00:08:24.529Z,12.94
2017-11-21T00:10:59.421Z,12.96
2017-11-21T00:13:37.331Z,12.83
2017-11-21T00:16:14.757Z,12.86
2017-11-21T00:18:48.056Z,12.99
2017-11-21T00:21:20.239Z,12.96
2017-11-21T00:23:59.664Z,13.03
2017-11-21T00:26:33.350Z,13.06
2017-11-21T00:29:06.641Z,12.99
2017-11-21T00:31:40.839Z,12.95
2017-11-21T00:34:11.908Z,12.95
2017-11-21T00:36:43.634Z,12.91
2017-11-21T00:39:16.254Z,12.82
2017-11-21T00:44:34.231Z,12.94
2017-11-21T00:47:05.774Z,12.98
2017-11-21T00:49:37.755Z,12.89
2017-11-21T00:54:49.138Z,12.91
2017-11-21T00:57:21.632Z,12.98
2017-11-21T00:59:59.339Z,13.01
2017-11-21T01:02:32.426Z,12.66
2017-11-21T01:05:04.735Z,13.07
2017-11-21T01:07:36.832Z,13.08
2017-11-21T01:10:09.250Z,13.11
2017-11-21T01:12:41.027Z,13.14
2017-11-21T01:15:15.424Z,13.06
2017-11-21T01:17:47.129Z,13.12
2017-11-21T01:20:19.755Z,13.11
2017-11-21T01:22:55.321Z,13.09
2017-11-21T01:25:27.434Z,13.13
2017-11-21T01:27:59.122Z,13.19
2017-11-21T01:30:32.826Z,13.20
2017-11-21T01:33:05.808Z,13.11
2017-11-21T01:35:37.528Z,13.17
2017-11-21T01:38:09.623Z,13.26
2017-11-21T01:40:41.931Z,13.22
2017-11-21T01:43:14.368Z,13.26
2017-11-21T01:45:46.648Z,13.13
2017-11-21T01:48:20.889Z,13.24
2017-11-21T01:50:52.660Z,13.28
2017-11-21T01:53:25.874Z,13.33
2017-11-21T01:55:58.076Z,13.27
2017-11-21T01:58:31.173Z,13.23
2017-11-21T02:03:38.578Z,13.36
2017-11-21T02:06:10.387Z,13.41
2017-11-21T02:08:43.588Z,13.40
2017-11-21T02:11:15.382Z,13.40
2017-11-21T02:13:59.308Z,13.37
2017-11-21T02:16:33.674Z,13.40
2017-11-21T02:19:04.259Z,13.44
2017-11-21T02:21:35.234Z,13.48
2017-11-21T02:24:15.356Z,13.49
2017-11-21T02:26:48.064Z,13.55
2017-11-21T02:29:20.669Z,13.59
2017-11-21T02:31:53.065Z,13.54
2017-11-21T02:34:24.746Z,13.56
2017-11-21T02:36:56.660Z,13.49
2017-11-21T02:39:27.259Z,13.56
2017-11-21T02:41:57.407Z,13.60
2017-11-21T02:44:29.442Z,13.60
2017-11-21T02:47:01.544Z,13.64
2017-11-21T02:49:34.150Z,13.65
2017-11-21T02:54:44.965Z,13.71
2017-11-21T02:57:16.871Z,13.69
2017-11-21T02:59:48.771Z,13.69
2017-11-21T03:02:25.277Z,13.71
2017-11-21T03:04:56.985Z,13.77
2017-11-21T03:07:29.388Z,13.79
2017-11-21T03:10:01.394Z,13.86
2017-11-21T03:12:34.796Z,13.78
2017-11-21T03:15:08.595Z,13.82
2017-11-21T03:17:41.286Z,13.82
2017-11-21T03:20:21.692Z,13.77
2017-11-21T03:25:05.596Z,13.79
2017-11-21T03:27:36.988Z,13.73
2017-11-21T03:30:10.082Z,13.79
2017-11-21T03:32:43.784Z,13.79
2017-11-21T03:35:17.379Z,13.78
2017-11-21T03:37:49.578Z,13.75
2017-11-21T03:40:22.878Z,13.75
2017-11-21T03:42:56.181Z,13.81
2017-11-21T03:45:28.881Z,13.81
2017-11-21T03:48:00.594Z,13.79
2017-11-21T03:50:31.006Z,13.74
2017-11-21T03:53:03.882Z,13.81
2017-11-21T03:55:35.483Z,13.70
2017-11-21T03:58:07.653Z,13.65
2017-11-21T04:00:41.893Z,13.68
2017-11-21T04:03:16.893Z,13.62
2017-11-21T04:05:52.212Z,13.66
2017-11-21T04:08:26.094Z,13.70
2017-11-21T04:10:57.778Z,13.65
2017-11-21T04:13:29.374Z,13.74
2017-11-21T04:16:07.990Z,13.73
2017-11-21T04:18:41.585Z,13.69
2017-11-21T04:21:16.990Z,13.76
2017-11-21T04:23:49.877Z,13.65
2017-11-21T04:26:21.483Z,13.68
2017-11-21T04:28:53.880Z,13.64
2017-11-21T04:31:24.656Z,13.66
2017-11-21T04:33:56.310Z,13.72
2017-11-21T04:36:29.628Z,13.69
2017-11-21T04:39:02.337Z,13.73
2017-11-21T04:41:36.743Z,13.65
2017-11-21T04:44:10.070Z,13.72
2017-11-21T04:46:41.084Z,13.74
2017-11-21T04:49:14.572Z,13.73
2017-11-21T04:51:47.955Z,13.70
2017-11-21T04:54:22.156Z,13.75
2017-11-21T04:56:55.861Z,13.73
2017-11-21T04:59:27.575Z,13.78
2017-11-21T05:02:00.580Z,13.76
2017-11-21T05:04:32.862Z,13.74
2017-11-21T05:07:04.858Z,13.70
2017-11-21T05:09:38.661Z,13.73
2017-11-21T05:12:11.257Z,13.65
2017-11-21T05:14:44.048Z,13.75
2017-11-21T05:17:15.847Z,13.75
2017-11-21T05:19:47.851Z,13.81
2017-11-21T05:22:21.049Z,13.77
2017-11-21T05:24:53.644Z,13.83
2017-11-21T05:27:25.448Z,13.86
2017-11-21T05:30:04.051Z,13.85
2017-11-21T05:32:46.443Z,13.98
2017-11-21T05:35:18.048Z,13.92
2017-11-21T05:37:50.644Z,13.94
2017-11-21T05:40:22.433Z,13.85
2017-11-21T05:42:55.631Z,13.97
2017-11-21T05:45:28.227Z,13.96
2017-11-21T05:48:03.476Z,14.03
2017-11-21T05:50:35.663Z,14.00
2017-11-21T05:53:08.519Z,13.99
2017-11-21T05:55:40.914Z,14.10
2017-11-21T05:58:12.717Z,14.03
2017-11-21T06:00:45.115Z,13.95
2017-11-21T06:03:16.831Z,13.82
2017-11-21T06:05:49.617Z,13.84
2017-11-21T06:08:21.217Z,13.84
2017-11-21T06:10:53.694Z,13.88
2017-11-21T06:13:27.819Z,13.82
2017-11-21T06:16:00.227Z,13.79
2017-11-21T06:18:31.821Z,13.69
2017-11-21T06:21:05.630Z,13.79
2017-11-21T06:23:40.668Z,13.76
2017-11-21T06:26:13.735Z,13.75
2017-11-21T06:28:45.337Z,13.81
2017-11-21T06:31:17.532Z,13.83
2017-11-21T06:33:50.350Z,13.89
2017-11-21T06:36:22.246Z,13.85
2017-11-21T06:38:54.734Z,13.82
2017-11-21T06:41:26.546Z,13.88
2017-11-21T06:43:58.348Z,13.86
2017-11-21T06:46:30.733Z,13.75
2017-11-21T06:49:02.545Z,13.80
2017-11-21T06:51:34.454Z,13.89
2017-11-21T06:59:51.695Z,13.86
2017-11-21T07:02:24.180Z,13.95
2017-11-21T07:07:58.783Z,13.91
2017-11-21T07:10:32.636Z,13.93
2017-11-21T07:13:06.892Z,14.01
2017-11-21T07:15:39.189Z,14.02
2017-11-21T07:18:11.887Z,14.05
2017-11-21T07:20:45.808Z,13.99
2017-11-21T07:23:26.046Z,13.90
2017-11-21T07:26:04.491Z,13.91
2017-11-21T07:28:37.717Z,13.79
2017-11-21T07:31:12.181Z,13.91
2017-11-21T07:33:44.322Z,13.78
2017-11-21T07:36:16.713Z,13.80
2017-11-21T07:38:50.640Z,13.91
2017-11-21T07:41:26.021Z,13.94
2017-11-21T07:44:04.882Z,13.91
2017-11-21T07:46:38.022Z,14.02
2017-11-21T07:49:10.811Z,14.11
2017-11-21T07:51:45.511Z,14.16
2017-11-21T07:54:20.028Z,14.06
2017-11-21T07:56:53.228Z,14.09
2017-11-21T07:59:27.739Z,14.10
2017-11-21T08:02:00.648Z,14.10
2017-11-21T08:04:36.363Z,14.00
2017-11-21T08:07:18.680Z,14.03
2017-11-21T08:09:52.670Z,14.14
2017-11-21T08:12:24.690Z,14.10
2017-11-21T08:14:59.077Z,14.08
2017-11-21T08:17:31.897Z,14.21
2017-11-21T08:20:03.879Z,14.17
2017-11-21T08:22:38.235Z,14.17
2017-11-21T08:25:11.598Z,14.34
2017-11-21T08:27:51.609Z,14.23
2017-11-21T08:30:26.791Z,14.09
2017-11-21T08:32:59.387Z,14.21
2017-11-21T08:35:30.978Z,14.23
2017-11-21T08:38:02.977Z,14.26
2017-11-21T08:40:35.979Z,14.19
2017-11-21T08:43:09.266Z,14.15
2017-11-21T08:45:41.763Z,14.20
2017-11-21T08:48:22.575Z,14.21
2017-11-21T08:50:55.301Z,14.06
2017-11-21T08:53:27.331Z,14.20
2017-11-21T08:56:00.062Z,14.08
2017-11-21T08:58:32.164Z,14.07
2017-11-21T09:01:04.367Z,14.05
2017-11-21T09:03:38.372Z,13.97
2017-11-21T09:06:12.429Z,14.12
2017-11-21T09:08:45.089Z,14.15
2017-11-21T09:11:17.269Z,14.21
2017-11-21T09:13:47.765Z,14.13
2017-11-21T09:16:31.301Z,14.17
2017-11-21T09:19:03.811Z,14.09
2017-11-21T09:21:36.969Z,14.25
2017-11-21T09:24:08.667Z,14.08
2017-11-21T09:26:43.766Z,14.08
2017-11-21T09:29:17.277Z,13.79
2017-11-21T09:31:54.075Z,13.86
2017-11-21T09:34:27.371Z,13.87
2017-11-21T09:36:59.490Z,13.87
2017-11-21T09:39:46.423Z,14.04
2017-11-21T09:42:20.097Z,13.94
2017-11-21T09:44:56.759Z,14.01
2017-11-21T09:47:40.933Z,14.06
2017-11-21T09:50:21.621Z,14.04
2017-11-21T09:52:54.617Z,14.08
2017-11-21T09:55:27.366Z,13.96
2017-11-21T09:58:03.153Z,13.97
2017-11-21T10:00:35.745Z,14.01
2017-11-21T10:03:08.648Z,14.03
2017-11-21T10:05:40.848Z,14.08
2017-11-21T10:08:14.573Z,13.88
2017-11-21T10:10:47.471Z,13.92
2017-11-21T10:13:20.973Z,13.92
2017-11-21T10:15:59.083Z,13.90
2017-11-21T10:18:30.888Z,13.83
2017-11-21T10:21:03.799Z,13.83
2017-11-21T10:23:42.511Z,13.89
2017-11-21T10:26:20.332Z,13.96
2017-11-21T10:28:56.160Z,13.92
2017-11-21T10:31:29.318Z,13.90
2017-11-21T10:34:01.452Z,13.99
2017-11-21T10:36:34.235Z,13.90
2017-11-21T10:39:05.927Z,13.89
2017-11-21T10:41:38.425Z,14.01
2017-11-21T10:44:11.333Z,13.95
2017-11-21T10:46:43.828Z,13.87
2017-11-21T10:49:15.614Z,13.85
2017-11-21T10:52:18.733Z,13.94
2017-11-21T10:54:56.107Z,14.02
2017-11-21T11:00:07.127Z,14.00
2017-11-21T11:02:42.017Z,13.97
2017-11-21T11:05:13.919Z,14.00
2017-11-21T11:07:47.520Z,13.88
2017-11-21T11:10:25.739Z,13.91
2017-11-21T11:13:06.315Z,13.80
2017-11-21T11:15:38.443Z,13.81
2017-11-21T11:18:13.733Z,13.98
2017-11-21T11:20:49.134Z,13.97
2017-11-21T11:23:26.122Z,13.91
2017-11-21T11:25:57.852Z,13.82
2017-11-21T11:28:33.926Z,13.98
2017-11-21T11:31:08.702Z,13.95
2017-11-21T11:33:40.504Z,13.86
2017-11-21T11:36:18.431Z,13.90
2017-11-21T11:38:53.220Z,13.82
2017-11-21T11:41:29.919Z,13.83
2017-11-21T11:44:07.951Z,13.76
2017-11-21T11:49:57.542Z,13.73
2017-11-21T11:52:43.522Z,13.67
2017-11-21T11:55:24.908Z,13.77
2017-11-21T11:57:59.162Z,13.89
2017-11-21T12:00:32.658Z,13.82
2017-11-21T12:03:05.650Z,13.80
2017-11-21T12:05:39.440Z,13.91
2017-11-21T12:08:12.965Z,13.72
2017-11-21T12:10:45.374Z,13.72
2017-11-21T12:13:17.662Z,13.71
2017-11-21T12:15:52.370Z,13.80
2017-11-21T12:18:25.369Z,13.93
2017-11-21T12:20:59.070Z,13.86
2017-11-21T12:23:32.583Z,14.00
2017-11-21T12:26:04.583Z,13.82
2017-11-21T12:28:37.264Z,13.87
2017-11-21T12:31:11.800Z,14.00
2017-11-21T12:33:47.766Z,14.03
2017-11-21T12:36:31.437Z,13.90
2017-11-21T12:39:05.739Z,13.65
2017-11-21T12:41:38.676Z,13.67
2017-11-21T12:44:12.032Z,13.72
2017-11-21T12:46:49.360Z,13.64
2017-11-21T12:49:22.428Z,13.66
2017-11-21T12:51:58.252Z,13.76
2017-11-21T12:54:31.604Z,13.71
2017-11-21T12:57:05.212Z,13.62
2017-11-21T12:59:44.484Z,13.77
2017-11-21T13:02:19.443Z,13.73
2017-11-21T13:04:50.038Z,13.68
2017-11-21T13:07:23.819Z,13.64
2017-11-21T13:10:01.866Z,13.48
2017-11-21T13:12:36.151Z,13.57
2017-11-21T13:15:18.516Z,13.72
2017-11-21T13:17:50.800Z,13.62
2017-11-21T13:20:23.939Z,13.60
2017-11-21T13:23:00.361Z,13.65
2017-11-21T13:25:34.774Z,13.79
2017-11-21T13:28:16.583Z,13.76
2017-11-21T13:30:54.701Z,13.74
2017-11-21T13:33:29.594Z,13.70
2017-11-21T13:36:11.418Z,13.68
2017-11-21T13:38:47.594Z,13.65
2017-11-21T13:41:19.579Z,13.74
2017-11-21T13:44:00.591Z,13.63
2017-11-21T13:46:35.290Z,13.58
2017-11-21T13:49:09.292Z,13.64
2017-11-21T13:51:43.423Z,13.50
2017-11-21T13:54:23.703Z,13.35
2017-11-21T13:57:09.073Z,13.46
2017-11-21T13:59:46.240Z,13.57
2017-11-21T14:02:21.106Z,13.52
2017-11-21T14:04:55.019Z,13.65
2017-11-21T14:07:30.325Z,13.78
2017-11-21T14:10:05.106Z,13.55
2017-11-21T14:12:37.862Z,13.53
2017-11-21T14:15:19.810Z,13.44
2017-11-21T14:18:09.323Z,13.56
2017-11-21T14:20:51.421Z,13.54
2017-11-21T14:26:03.228Z,13.55
2017-11-21T14:28:55.794Z,13.50
2017-11-21T14:31:34.028Z,13.44
2017-11-21T14:34:11.639Z,13.46
2017-11-21T14:36:51.176Z,13.29
2017-11-21T14:39:24.015Z,13.26
2017-11-21T14:45:22.790Z,13.32
2017-11-21T14:47:56.167Z,13.43
2017-11-21T14:50:32.275Z,13.38
2017-11-21T14:53:03.528Z,13.34
2017-11-21T14:55:34.599Z,13.37
2017-11-21T14:58:16.019Z,13.28
2017-11-21T15:00:59.528Z,13.40
2017-11-21T15:03:32.742Z,13.53
2017-11-21T15:06:08.541Z,13.49
2017-11-21T15:08:40.750Z,13.27
2017-11-21T15:11:19.122Z,13.46
2017-11-21T15:14:13.438Z,13.44
2017-11-21T15:16:54.923Z,13.36
2017-11-21T15:22:03.742Z,13.41
2017-11-21T15:24:37.718Z,13.44
2017-11-21T15:27:11.952Z,13.46
2017-11-21T15:29:44.231Z,13.55
2017-11-21T15:32:18.640Z,13.55
2017-11-21T15:34:50.555Z,13.56
2017-11-21T15:37:22.473Z,13.59
2017-11-21T15:39:55.438Z,13.59
2017-11-21T15:42:28.052Z,13.64
2017-11-21T15:45:07.037Z,13.78
2017-11-21T15:47:40.756Z,13.79
2017-11-21T15:50:14.649Z,13.77
2017-11-21T15:52:45.605Z,13.65
2017-11-21T15:55:32.850Z,13.61
2017-11-21T15:58:06.459Z,13.53
2017-11-21T16:00:45.338Z,13.49
2017-11-21T16:03:20.545Z,13.45
2017-11-21T16:08:22.240Z,13.35
2017-11-21T16:10:54.612Z,13.32
2017-11-21T16:13:32.707Z,13.41
2017-11-21T16:16:16.229Z,13.39
2017-11-21T16:18:56.541Z,13.41
2017-11-21T16:21:31.743Z,13.29
2017-11-21T16:24:07.223Z,13.31
2017-11-21T16:26:46.938Z,13.26
2017-11-21T16:29:19.822Z,13.40
2017-11-21T16:32:08.158Z,13.31
2017-11-21T16:34:49.002Z,13.46
2017-11-21T16:37:22.669Z,13.37
2017-11-21T16:40:02.041Z,13.27
2017-11-21T16:42:33.817Z,13.38
2017-11-21T16:45:10.745Z,13.58
2017-11-21T16:47:58.847Z,13.56
2017-11-21T16:50:30.629Z,13.56
2017-11-21T16:53:22.620Z,13.57
2017-11-21T16:56:00.016Z,13.55
2017-11-21T16:58:41.236Z,13.57
2017-11-21T17:01:30.082Z,13.58
2017-11-21T17:04:10.530Z,13.56
2017-11-21T17:06:46.921Z,13.67
2017-11-21T17:12:21.068Z,13.64
2017-11-21T17:14:55.367Z,13.49
2017-11-21T17:17:30.769Z,13.77
2017-11-21T17:20:05.967Z,13.77
2017-11-21T17:22:41.096Z,13.77
2017-11-21T17:25:14.077Z,13.73
2017-11-21T17:27:59.787Z,13.70
2017-11-21T17:30:34.474Z,13.68
2017-11-21T17:33:11.901Z,13.52
2017-11-21T17:35:42.751Z,13.50
2017-11-21T17:38:15.867Z,13.41
2017-11-21T17:40:51.146Z,13.53
2017-11-21T17:43:26.540Z,13.72
2017-11-21T17:45:59.381Z,13.60
2017-11-21T17:48:31.648Z,13.44
2017-11-21T17:51:04.488Z,13.47
2017-11-21T17:53:40.364Z,13.65
2017-11-21T17:56:13.326Z,13.30
2017-11-21T17:58:43.931Z,13.36
2017-11-21T18:01:19.859Z,12.84
2017-11-21T18:04:03.655Z,13.30
2017-11-21T18:06:41.884Z,13.27
2017-11-21T18:09:20.348Z,13.27
2017-11-21T18:11:53.889Z,13.29
2017-11-21T18:14:30.919Z,13.36
2017-11-21T18:17:56.093Z,13.31
2017-11-21T18:20:32.691Z,13.24
2017-11-21T18:23:10.685Z,13.34
2017-11-21T18:25:44.396Z,13.35
2017-11-21T18:28:17.786Z,13.44
2017-11-21T18:34:00.374Z,13.45
2017-11-21T18:36:38.642Z,13.43
2017-11-21T18:39:15.903Z,13.33
2017-11-21T18:41:51.812Z,13.34
2017-11-21T18:44:24.711Z,13.33
2017-11-21T18:46:58.429Z,13.39
2017-11-21T18:49:33.277Z,13.31
2017-11-21T18:52:09.616Z,13.30
2017-11-21T18:54:51.116Z,13.31
2017-11-21T18:57:25.375Z,13.16
2017-11-21T19:00:00.625Z,13.18
2017-11-21T19:02:38.565Z,12.88
2017-11-21T19:05:09.041Z,13.03
2017-11-21T19:07:42.714Z,13.24
2017-11-21T19:10:18.064Z,13.33
2017-11-21T19:12:51.583Z,13.33
2017-11-21T19:15:22.958Z,13.27
2017-11-21T19:18:02.932Z,13.11
2017-11-21T19:20:35.271Z,12.86
2017-11-21T19:23:16.252Z,13.08
2017-11-21T19:25:50.165Z,13.14
2017-11-21T19:28:23.978Z,13.03
2017-11-21T19:30:58.092Z,13.09
2017-11-21T19:33:37.975Z,12.98
2017-11-21T19:36:11.767Z,13.13
2017-11-21T19:38:46.369Z,13.16
2017-11-21T19:41:20.682Z,12.81
2017-11-21T19:43:59.495Z,13.21
2017-11-21T19:46:33.372Z,13.20
2017-11-21T19:49:08.797Z,12.90
2017-11-21T19:51:41.708Z,13.18
2017-11-21T19:54:14.097Z,13.14
2017-11-21T19:56:46.585Z,13.18
2017-11-21T19:59:19.169Z,12.93
2017-11-21T20:01:51.620Z,13.09
2017-11-21T20:04:35.087Z,12.93
2017-11-21T20:07:10.276Z,12.89
2017-11-21T20:09:43.378Z,12.79
2017-11-21T20:12:18.130Z,12.93
2017-11-21T20:14:58.431Z,12.73
2017-11-21T20:17:35.834Z,12.53
2017-11-21T20:20:10.722Z,12.94
2017-11-21T20:22:45.043Z,12.82
2017-11-21T20:25:18.149Z,12.98
2017-11-21T20:27:53.718Z,13.01
2017-11-21T20:35:30.221Z,12.92
2017-11-21T20:38:04.419Z,12.78
2017-11-21T20:40:39.054Z,12.82
2017-11-21T20:43:12.115Z,12.79
2017-11-21T20:45:45.111Z,12.81
2017-11-21T20:48:15.839Z,12.81
2017-11-21T20:50:52.444Z,12.75
2017-11-21T20:53:26.815Z,12.75
2017-11-21T20:55:57.573Z,12.82
2017-11-21T20:58:35.423Z,12.79
2017-11-21T21:01:16.830Z,12.88
2017-11-21T21:03:57.237Z,12.85
2017-11-21T21:06:28.556Z,12.91
2017-11-21T21:08:58.976Z,12.97
2017-11-21T21:11:31.937Z,12.92
2017-11-21T21:17:42.451Z,13.02
2017-11-21T21:20:22.252Z,12.90
2017-11-21T21:22:53.877Z,12.81
2017-11-21T21:25:26.152Z,12.93
2017-11-21T21:28:02.591Z,12.98
2017-11-21T21:30:39.557Z,13.00
2017-11-21T21:33:18.067Z,12.87
2017-11-21T21:35:48.701Z,12.95
2017-11-21T21:38:19.871Z,12.95
2017-11-21T21:40:51.471Z,12.74
2017-11-21T21:43:23.321Z,12.96
2017-11-21T21:45:57.397Z,13.04
2017-11-21T21:48:29.927Z,13.05
2017-11-21T21:53:53.206Z,12.92
2017-11-21T21:56:27.159Z,13.14
2017-11-21T21:59:10.412Z,12.73
2017-11-21T22:01:44.244Z,12.91
2017-11-21T22:04:16.648Z,13.04
2017-11-21T22:06:52.879Z,12.86
2017-11-21T22:09:25.031Z,12.86
2017-11-21T22:11:55.644Z,12.75
2017-11-21T22:14:27.452Z,12.88
2017-11-21T22:17:02.330Z,13.02
2017-11-21T22:19:33.654Z,12.76
2017-11-21T22:22:07.089Z,12.78
2017-11-21T22:24:38.623Z,12.76
2017-11-21T22:27:11.047Z,12.88
2017-11-21T22:29:51.312Z,12.71
2017-11-21T22:32:22.548Z,12.65
2017-11-21T22:34:53.959Z,12.73
2017-11-21T22:37:25.735Z,12.81
2017-11-21T22:40:01.759Z,12.81
2017-11-21T22:42:37.136Z,12.79
2017-11-21T22:45:17.645Z,12.81
2017-11-21T22:47:52.157Z,12.57
2017-11-21T22:50:25.850Z,12.84
2017-11-21T22:52:59.383Z,12.59
2017-11-21T22:55:33.569Z,12.78
2017-11-21T22:58:04.783Z,12.60
2017-11-21T23:00:36.050Z,12.33
2017-11-21T23:03:10.003Z,12.47
2017-11-21T23:05:44.156Z,12.35
2017-11-21T23:08:17.896Z,12.29
2017-11-21T23:10:59.346Z,12.49
2017-11-21T23:13:34.769Z,12.40
2017-11-21T23:16:07.566Z,12.58
2017-11-21T23:18:39.598Z,12.52
2017-11-21T23:21:25.817Z,12.58
2017-11-21T23:24:05.390Z,12.53
2017-11-21T23:26:39.442Z,12.55
2017-11-21T23:29:20.274Z,12.00
2017-11-21T23:32:03.469Z,12.01
2017-11-21T23:34:35.265Z,12.00
2017-11-21T23:37:19.359Z,12.23
2017-11-21T23:40:04.710Z,12.14
2017-11-21T23:42:38.184Z,12.27
2017-11-21T23:45:20.846Z,12.29
2017-11-21T23:48:03.386Z,12.22
2017-11-21T23:50:40.231Z,12.60
2017-11-21T23:53:18.440Z,12.81
2017-11-21T23:56:14.696Z,12.70
2017-11-21T23:58:53.904Z,12.89
